sensor_id;sensor_type;location;lat;lon;timestamp;temperature;humidity
27797;DHT22;15177;50.844;4.412;2023-02-01T00:01:33;8.70;99.90
27797;DHT22;15177;50.844;4.412;2023-02-01T00:03:59;8.70;99.90
27797;DHT22;15177;50.844;4.412;2023-02-01T00:06:24;8.80;99.90
27797;DHT22;15177;50.844;4.412;2023-02-01T00:08:54;8.70;99.90
27797;DHT22;15177;50.844;4.412;2023-02-01T00:11:20;8.60;99.90
27797;DHT22;15177;50.844;4.412;2023-02-01T00:13:46;8.60;99.90
27797;DHT22;15177;50.844;4.412;2023-02-01T00:16:14;8.50;99.90
27797;DHT22;15177;50.844;4.412;2023-02-01T00:18:46;8.50;99.90
27797;DHT22;15177;50.844;4.412;2023-02-01T00:21:12;8.60;99.90
27797;DHT22;15177;50.844;4.412;2023-02-01T00:23:38;8.60;99.90
27797;DHT22;15177;50.844;4.412;2023-02-01T00:26:06;8.50;99.90
27797;DHT22;15177;50.844;4.412;2023-02-01T00:28:32;8.50;99.90
27797;DHT22;15177;50.844;4.412;2023-02-01T00:31:02;8.50;99.90
27797;DHT22;15177;50.844;4.412;2023-02-01T00:33:29;8.50;99.90
27797;DHT22;15177;50.844;4.412;2023-02-01T00:36:02;8.50;99.90
27797;DHT22;15177;50.844;4.412;2023-02-01T00:38:29;8.50;99.90
27797;DHT22;15177;50.844;4.412;2023-02-01T00:41:13;8.30;99.90
27797;DHT22;15177;50.844;4.412;2023-02-01T00:43:40;8.30;99.90
27797;DHT22;15177;50.844;4.412;2023-02-01T00:46:06;8.20;99.90
27797;DHT22;15177;50.844;4.412;2023-02-01T00:48:31;8.30;99.90
27797;DHT22;15177;50.844;4.412;2023-02-01T00:51:08;8.40;99.90
27797;DHT22;15177;50.844;4.412;2023-02-01T00:53:35;8.40;99.90
27797;DHT22;15177;50.844;4.412;2023-02-01T00:56:01;8.30;99.90
27797;DHT22;15177;50.844;4.412;2023-02-01T00:58:27;8.30;99.90
27797;DHT22;15177;50.844;4.412;2023-02-01T01:01:06;8.40;99.90
27797;DHT22;15177;50.844;4.412;2023-02-01T01:03:34;8.40;99.90
27797;DHT22;15177;50.844;4.412;2023-02-01T01:06:02;8.40;99.90
27797;DHT22;15177;50.844;4.412;2023-02-01T01:08:28;8.50;99.90
27797;DHT22;15177;50.844;4.412;2023-02-01T01:10:54;8.60;99.90
27797;DHT22;15177;50.844;4.412;2023-02-01T01:13:19;8.60;99.90
27797;DHT22;15177;50.844;4.412;2023-02-01T01:15:45;8.60;99.90
27797;DHT22;15177;50.844;4.412;2023-02-01T01:18:11;8.60;99.90
27797;DHT22;15177;50.844;4.412;2023-02-01T01:20:39;8.50;99.90
27797;DHT22;15177;50.844;4.412;2023-02-01T01:23:06;8.40;99.90
27797;DHT22;15177;50.844;4.412;2023-02-01T01:25:32;8.50;99.90
27797;DHT22;15177;50.844;4.412;2023-02-01T01:28:02;8.40;99.90
27797;DHT22;15177;50.844;4.412;2023-02-01T01:30:27;8.20;99.90
27797;DHT22;15177;50.844;4.412;2023-02-01T01:32:53;8.10;99.90
27797;DHT22;15177;50.844;4.412;2023-02-01T01:35:20;8.30;99.90
27797;DHT22;15177;50.844;4.412;2023-02-01T01:37:46;8.40;99.90
27797;DHT22;15177;50.844;4.412;2023-02-01T01:40:12;8.40;99.90
27797;DHT22;15177;50.844;4.412;2023-02-01T01:42:42;8.40;99.90
27797;DHT22;15177;50.844;4.412;2023-02-01T01:47:42;8.40;99.90
27797;DHT22;15177;50.844;4.412;2023-02-01T01:50:13;8.30;99.90
27797;DHT22;15177;50.844;4.412;2023-02-01T01:52:43;8.30;99.90
27797;DHT22;15177;50.844;4.412;2023-02-01T01:55:11;8.30;99.90
27797;DHT22;15177;50.844;4.412;2023-02-01T01:57:39;8.40;99.90
27797;DHT22;15177;50.844;4.412;2023-02-01T02:00:09;8.40;99.90
27797;DHT22;15177;50.844;4.412;2023-02-01T02:02:37;8.40;99.90
27797;DHT22;15177;50.844;4.412;2023-02-01T02:05:04;8.30;99.90
27797;DHT22;15177;50.844;4.412;2023-02-01T02:07:34;8.30;99.90
27797;DHT22;15177;50.844;4.412;2023-02-01T02:10:03;8.40;99.90
27797;DHT22;15177;50.844;4.412;2023-02-01T02:12:31;8.30;99.90
27797;DHT22;15177;50.844;4.412;2023-02-01T02:14:57;8.20;99.90
27797;DHT22;15177;50.844;4.412;2023-02-01T02:26:11;7.90;99.90
27797;DHT22;15177;50.844;4.412;2023-02-01T02:31:40;7.90;99.90
27797;DHT22;15177;50.844;4.412;2023-02-01T02:49:06;7.90;99.90
27797;DHT22;15177;50.844;4.412;2023-02-01T02:51:48;7.90;99.90
27797;DHT22;15177;50.844;4.412;2023-02-01T02:54:36;8.00;99.90
27797;DHT22;15177;50.844;4.412;2023-02-01T03:00:05;8.00;99.90
27797;DHT22;15177;50.844;4.412;2023-02-01T03:02:50;8.00;99.90
27797;DHT22;15177;50.844;4.412;2023-02-01T03:05:39;8.00;99.90
27797;DHT22;15177;50.844;4.412;2023-02-01T03:13:19;7.90;99.90
27797;DHT22;15177;50.844;4.412;2023-02-01T03:15:55;7.90;99.90
27797;DHT22;15177;50.844;4.412;2023-02-01T03:18:49;7.90;99.90
27797;DHT22;15177;50.844;4.412;2023-02-01T03:21:17;7.90;99.90
27797;DHT22;15177;50.844;4.412;2023-02-01T03:23:44;7.80;99.90
27797;DHT22;15177;50.844;4.412;2023-02-01T03:26:13;7.70;99.90
27797;DHT22;15177;50.844;4.412;2023-02-01T03:28:49;7.70;99.90
27797;DHT22;15177;50.844;4.412;2023-02-01T03:31:17;7.70;99.90
27797;DHT22;15177;50.844;4.412;2023-02-01T03:33:43;7.70;99.90
27797;DHT22;15177;50.844;4.412;2023-02-01T03:41:40;7.60;99.90
27797;DHT22;15177;50.844;4.412;2023-02-01T03:49:51;7.70;99.90
27797;DHT22;15177;50.844;4.412;2023-02-01T03:52:23;7.60;99.90
27797;DHT22;15177;50.844;4.412;2023-02-01T03:54:50;7.70;99.90
27797;DHT22;15177;50.844;4.412;2023-02-01T03:57:31;7.60;99.90
27797;DHT22;15177;50.844;4.412;2023-02-01T04:00:07;7.50;99.90
27797;DHT22;15177;50.844;4.412;2023-02-01T04:02:35;7.40;99.90
27797;DHT22;15177;50.844;4.412;2023-02-01T04:05:01;7.40;99.90
27797;DHT22;15177;50.844;4.412;2023-02-01T04:07:26;7.60;99.90
27797;DHT22;15177;50.844;4.412;2023-02-01T04:09:52;7.60;99.90
27797;DHT22;15177;50.844;4.412;2023-02-01T04:12:17;7.60;99.90
27797;DHT22;15177;50.844;4.412;2023-02-01T04:14:43;7.60;99.90
27797;DHT22;15177;50.844;4.412;2023-02-01T04:17:09;7.40;99.90
27797;DHT22;15177;50.844;4.412;2023-02-01T04:19:34;7.50;99.90
27797;DHT22;15177;50.844;4.412;2023-02-01T04:22:00;7.50;99.90
27797;DHT22;15177;50.844;4.412;2023-02-01T04:24:25;7.40;99.90
27797;DHT22;15177;50.844;4.412;2023-02-01T04:26:51;7.30;99.90
27797;DHT22;15177;50.844;4.412;2023-02-01T04:29:17;7.30;99.90
27797;DHT22;15177;50.844;4.412;2023-02-01T04:31:42;7.20;99.90
27797;DHT22;15177;50.844;4.412;2023-02-01T04:34:08;7.20;99.90
27797;DHT22;15177;50.844;4.412;2023-02-01T04:36:34;7.10;99.90
27797;DHT22;15177;50.844;4.412;2023-02-01T04:38:59;7.10;99.90
27797;DHT22;15177;50.844;4.412;2023-02-01T04:41:25;7.00;99.90
27797;DHT22;15177;50.844;4.412;2023-02-01T04:43:51;7.10;99.90
27797;DHT22;15177;50.844;4.412;2023-02-01T04:46:19;7.10;99.90
27797;DHT22;15177;50.844;4.412;2023-02-01T04:48:44;7.10;99.90
27797;DHT22;15177;50.844;4.412;2023-02-01T04:51:10;7.00;99.90
27797;DHT22;15177;50.844;4.412;2023-02-01T04:53:36;7.00;99.90
27797;DHT22;15177;50.844;4.412;2023-02-01T04:56:02;7.00;99.90
27797;DHT22;15177;50.844;4.412;2023-02-01T04:58:27;6.90;99.90
27797;DHT22;15177;50.844;4.412;2023-02-01T05:00:53;7.00;99.90
27797;DHT22;15177;50.844;4.412;2023-02-01T05:03:19;6.90;99.90
27797;DHT22;15177;50.844;4.412;2023-02-01T05:05:48;6.90;99.90
27797;DHT22;15177;50.844;4.412;2023-02-01T05:08:15;6.90;99.90
27797;DHT22;15177;50.844;4.412;2023-02-01T05:10:41;6.90;99.90
27797;DHT22;15177;50.844;4.412;2023-02-01T05:13:08;6.80;99.90
27797;DHT22;15177;50.844;4.412;2023-02-01T05:15:53;6.70;99.90
27797;DHT22;15177;50.844;4.412;2023-02-01T05:18:19;6.70;99.90
27797;DHT22;15177;50.844;4.412;2023-02-01T05:20:44;6.70;99.90
27797;DHT22;15177;50.844;4.412;2023-02-01T05:23:10;6.60;99.90
27797;DHT22;15177;50.844;4.412;2023-02-01T05:25:36;6.60;99.90
27797;DHT22;15177;50.844;4.412;2023-02-01T05:28:01;6.70;99.90
27797;DHT22;15177;50.844;4.412;2023-02-01T05:30:27;6.70;99.90
27797;DHT22;15177;50.844;4.412;2023-02-01T05:32:54;6.60;99.90
27797;DHT22;15177;50.844;4.412;2023-02-01T05:35:20;6.60;99.90
27797;DHT22;15177;50.844;4.412;2023-02-01T05:37:46;6.60;99.90
27797;DHT22;15177;50.844;4.412;2023-02-01T05:40:12;6.50;99.90
27797;DHT22;15177;50.844;4.412;2023-02-01T05:42:37;6.50;99.90
27797;DHT22;15177;50.844;4.412;2023-02-01T05:45:03;6.50;99.90
27797;DHT22;15177;50.844;4.412;2023-02-01T05:47:30;6.40;99.90
27797;DHT22;15177;50.844;4.412;2023-02-01T05:49:56;6.40;99.90
27797;DHT22;15177;50.844;4.412;2023-02-01T05:52:22;6.40;99.90
27797;DHT22;15177;50.844;4.412;2023-02-01T05:54:48;6.40;99.90
27797;DHT22;15177;50.844;4.412;2023-02-01T05:57:14;6.30;99.90
27797;DHT22;15177;50.844;4.412;2023-02-01T05:59:41;6.40;99.90
27797;DHT22;15177;50.844;4.412;2023-02-01T06:02:11;6.30;99.90
27797;DHT22;15177;50.844;4.412;2023-02-01T06:04:37;6.20;99.90
27797;DHT22;15177;50.844;4.412;2023-02-01T06:07:03;6.20;99.90
27797;DHT22;15177;50.844;4.412;2023-02-01T06:09:29;6.20;99.90
27797;DHT22;15177;50.844;4.412;2023-02-01T06:11:54;6.20;99.90
27797;DHT22;15177;50.844;4.412;2023-02-01T06:14:20;6.20;99.90
27797;DHT22;15177;50.844;4.412;2023-02-01T06:16:46;6.10;99.90
27797;DHT22;15177;50.844;4.412;2023-02-01T06:19:13;6.20;99.90
27797;DHT22;15177;50.844;4.412;2023-02-01T06:21:38;6.20;99.90
27797;DHT22;15177;50.844;4.412;2023-02-01T06:24:04;6.20;99.90
27797;DHT22;15177;50.844;4.412;2023-02-01T06:26:31;6.20;99.90
27797;DHT22;15177;50.844;4.412;2023-02-01T06:28:57;6.20;99.90
27797;DHT22;15177;50.844;4.412;2023-02-01T06:31:23;6.20;99.90
27797;DHT22;15177;50.844;4.412;2023-02-01T06:33:49;6.20;99.90
27797;DHT22;15177;50.844;4.412;2023-02-01T06:36:15;6.30;99.90
27797;DHT22;15177;50.844;4.412;2023-02-01T06:38:41;6.30;99.90
27797;DHT22;15177;50.844;4.412;2023-02-01T06:41:08;6.30;99.90
27797;DHT22;15177;50.844;4.412;2023-02-01T06:43:34;6.30;99.90
27797;DHT22;15177;50.844;4.412;2023-02-01T06:46:05;6.20;99.90
27797;DHT22;15177;50.844;4.412;2023-02-01T06:48:32;6.20;99.90
27797;DHT22;15177;50.844;4.412;2023-02-01T06:50:58;6.20;99.90
27797;DHT22;15177;50.844;4.412;2023-02-01T06:53:24;6.30;99.90
27797;DHT22;15177;50.844;4.412;2023-02-01T06:56:01;6.30;99.90
27797;DHT22;15177;50.844;4.412;2023-02-01T06:58:29;6.20;99.90
27797;DHT22;15177;50.844;4.412;2023-02-01T07:00:55;6.20;99.90
27797;DHT22;15177;50.844;4.412;2023-02-01T07:03:21;6.30;99.90
27797;DHT22;15177;50.844;4.412;2023-02-01T07:05:47;6.30;99.90
27797;DHT22;15177;50.844;4.412;2023-02-01T07:08:12;6.30;99.90
27797;DHT22;15177;50.844;4.412;2023-02-01T07:10:38;6.30;99.90
27797;DHT22;15177;50.844;4.412;2023-02-01T07:13:04;6.30;99.90
27797;DHT22;15177;50.844;4.412;2023-02-01T07:15:30;6.30;99.90
27797;DHT22;15177;50.844;4.412;2023-02-01T07:17:56;6.30;99.90
27797;DHT22;15177;50.844;4.412;2023-02-01T07:20:22;6.30;99.90
27797;DHT22;15177;50.844;4.412;2023-02-01T07:22:48;6.30;99.90
27797;DHT22;15177;50.844;4.412;2023-02-01T07:25:14;6.40;99.90
27797;DHT22;15177;50.844;4.412;2023-02-01T07:27:40;6.40;99.90
27797;DHT22;15177;50.844;4.412;2023-02-01T07:30:06;6.40;99.90
27797;DHT22;15177;50.844;4.412;2023-02-01T07:32:33;6.40;99.90
27797;DHT22;15177;50.844;4.412;2023-02-01T07:34:59;6.40;99.90
27797;DHT22;15177;50.844;4.412;2023-02-01T07:37:25;6.50;99.90
27797;DHT22;15177;50.844;4.412;2023-02-01T07:39:51;6.50;99.90
27797;DHT22;15177;50.844;4.412;2023-02-01T07:42:17;6.60;99.90
27797;DHT22;15177;50.844;4.412;2023-02-01T07:44:43;6.50;99.90
27797;DHT22;15177;50.844;4.412;2023-02-01T07:47:09;6.50;99.90
27797;DHT22;15177;50.844;4.412;2023-02-01T07:49:35;6.50;99.90
27797;DHT22;15177;50.844;4.412;2023-02-01T07:52:00;6.50;99.90
27797;DHT22;15177;50.844;4.412;2023-02-01T07:54:26;6.60;99.90
27797;DHT22;15177;50.844;4.412;2023-02-01T07:56:52;6.60;99.90
27797;DHT22;15177;50.844;4.412;2023-02-01T07:59:18;6.70;99.90
27797;DHT22;15177;50.844;4.412;2023-02-01T08:01:43;6.70;99.90
27797;DHT22;15177;50.844;4.412;2023-02-01T08:04:13;6.80;99.90
27797;DHT22;15177;50.844;4.412;2023-02-01T08:06:39;6.80;99.90
27797;DHT22;15177;50.844;4.412;2023-02-01T08:09:06;6.90;99.90
27797;DHT22;15177;50.844;4.412;2023-02-01T08:11:33;6.80;99.90
27797;DHT22;15177;50.844;4.412;2023-02-01T08:13:59;6.90;99.90
27797;DHT22;15177;50.844;4.412;2023-02-01T08:16:25;7.00;99.90
27797;DHT22;15177;50.844;4.412;2023-02-01T08:18:51;7.10;99.90
27797;DHT22;15177;50.844;4.412;2023-02-01T08:21:18;7.20;99.90
27797;DHT22;15177;50.844;4.412;2023-02-01T08:23:44;7.20;99.90
27797;DHT22;15177;50.844;4.412;2023-02-01T08:26:19;7.30;99.90
27797;DHT22;15177;50.844;4.412;2023-02-01T08:28:51;7.30;99.90
27797;DHT22;15177;50.844;4.412;2023-02-01T08:31:18;7.30;99.90
27797;DHT22;15177;50.844;4.412;2023-02-01T08:33:50;7.40;99.90
27797;DHT22;15177;50.844;4.412;2023-02-01T08:36:17;7.40;99.90
27797;DHT22;15177;50.844;4.412;2023-02-01T08:38:42;7.40;99.90
27797;DHT22;15177;50.844;4.412;2023-02-01T08:41:10;7.30;99.90
27797;DHT22;15177;50.844;4.412;2023-02-01T08:43:37;7.30;99.90
27797;DHT22;15177;50.844;4.412;2023-02-01T08:46:04;7.40;99.90
27797;DHT22;15177;50.844;4.412;2023-02-01T08:48:30;7.50;99.90
27797;DHT22;15177;50.844;4.412;2023-02-01T08:50:55;7.70;99.90
27797;DHT22;15177;50.844;4.412;2023-02-01T08:53:21;7.80;99.90
27797;DHT22;15177;50.844;4.412;2023-02-01T08:55:47;7.80;99.90
27797;DHT22;15177;50.844;4.412;2023-02-01T08:58:13;7.90;99.90
27797;DHT22;15177;50.844;4.412;2023-02-01T09:00:43;8.00;99.90
27797;DHT22;15177;50.844;4.412;2023-02-01T09:03:11;8.10;99.90
27797;DHT22;15177;50.844;4.412;2023-02-01T09:05:37;8.20;99.90
27797;DHT22;15177;50.844;4.412;2023-02-01T09:08:03;8.20;99.90
27797;DHT22;15177;50.844;4.412;2023-02-01T09:10:29;8.20;99.90
27797;DHT22;15177;50.844;4.412;2023-02-01T09:12:55;8.30;99.90
27797;DHT22;15177;50.844;4.412;2023-02-01T09:15:21;8.40;99.90
27797;DHT22;15177;50.844;4.412;2023-02-01T09:17:47;8.60;99.90
27797;DHT22;15177;50.844;4.412;2023-02-01T09:20:14;8.90;99.90
27797;DHT22;15177;50.844;4.412;2023-02-01T09:22:40;9.10;99.90
27797;DHT22;15177;50.844;4.412;2023-02-01T09:25:08;9.30;99.90
27797;DHT22;15177;50.844;4.412;2023-02-01T09:27:34;9.50;99.90
27797;DHT22;15177;50.844;4.412;2023-02-01T09:30:00;9.60;99.90
27797;DHT22;15177;50.844;4.412;2023-02-01T09:32:26;9.80;99.90
27797;DHT22;15177;50.844;4.412;2023-02-01T09:34:52;10.00;99.90
27797;DHT22;15177;50.844;4.412;2023-02-01T09:37:19;10.10;99.90
27797;DHT22;15177;50.844;4.412;2023-02-01T09:39:44;10.10;99.90
27797;DHT22;15177;50.844;4.412;2023-02-01T09:48:13;10.00;99.90
27797;DHT22;15177;50.844;4.412;2023-02-01T09:50:43;10.20;99.90
27797;DHT22;15177;50.844;4.412;2023-02-01T09:53:55;10.60;99.90
27797;DHT22;15177;50.844;4.412;2023-02-01T09:56:24;11.10;99.90
27797;DHT22;15177;50.844;4.412;2023-02-01T09:59:04;11.60;99.90
27797;DHT22;15177;50.844;4.412;2023-02-01T10:01:31;12.20;99.90
27797;DHT22;15177;50.844;4.412;2023-02-01T10:04:07;12.60;99.90
27797;DHT22;15177;50.844;4.412;2023-02-01T10:09:11;13.00;99.90
27797;DHT22;15177;50.844;4.412;2023-02-01T10:25:55;14.10;99.90
27797;DHT22;15177;50.844;4.412;2023-02-01T10:28:22;14.20;99.90
27797;DHT22;15177;50.844;4.412;2023-02-01T10:30:53;14.10;99.90
27797;DHT22;15177;50.844;4.412;2023-02-01T10:33:36;14.30;99.90
27797;DHT22;15177;50.844;4.412;2023-02-01T10:38:33;14.70;99.90
27797;DHT22;15177;50.844;4.412;2023-02-01T10:41:15;14.80;99.90
27797;DHT22;15177;50.844;4.412;2023-02-01T10:43:42;14.70;99.90
27797;DHT22;15177;50.844;4.412;2023-02-01T10:46:08;14.40;99.90
27797;DHT22;15177;50.844;4.412;2023-02-01T10:48:35;14.20;99.90
27797;DHT22;15177;50.844;4.412;2023-02-01T10:51:13;14.00;99.90
27797;DHT22;15177;50.844;4.412;2023-02-01T10:53:50;13.50;99.90
27797;DHT22;15177;50.844;4.412;2023-02-01T10:56:27;12.70;99.90
27797;DHT22;15177;50.844;4.412;2023-02-01T10:59:05;12.10;99.90
27797;DHT22;15177;50.844;4.412;2023-02-01T11:01:34;11.90;99.90
27797;DHT22;15177;50.844;4.412;2023-02-01T11:04:02;11.70;99.90
27797;DHT22;15177;50.844;4.412;2023-02-01T11:06:30;11.60;99.90
27797;DHT22;15177;50.844;4.412;2023-02-01T11:09:21;11.70;99.90
27797;DHT22;15177;50.844;4.412;2023-02-01T11:17:02;11.40;99.90
27797;DHT22;15177;50.844;4.412;2023-02-01T11:19:28;11.10;99.90
27797;DHT22;15177;50.844;4.412;2023-02-01T11:21:57;11.00;99.90
27797;DHT22;15177;50.844;4.412;2023-02-01T11:24:31;10.80;99.90
27797;DHT22;15177;50.844;4.412;2023-02-01T11:27:00;10.90;99.90
27797;DHT22;15177;50.844;4.412;2023-02-01T11:29:41;11.10;99.90
27797;DHT22;15177;50.844;4.412;2023-02-01T11:32:09;11.20;99.90
27797;DHT22;15177;50.844;4.412;2023-02-01T11:34:43;11.00;99.90
27797;DHT22;15177;50.844;4.412;2023-02-01T11:37:18;11.00;99.90
27797;DHT22;15177;50.844;4.412;2023-02-01T11:39:54;11.00;99.90
27797;DHT22;15177;50.844;4.412;2023-02-01T11:42:21;11.00;99.90
27797;DHT22;15177;50.844;4.412;2023-02-01T11:44:47;11.00;99.90
27797;DHT22;15177;50.844;4.412;2023-02-01T11:49:47;11.20;99.90
27797;DHT22;15177;50.844;4.412;2023-02-01T12:01:03;10.70;99.90
27797;DHT22;15177;50.844;4.412;2023-02-01T12:14:36;10.90;99.90
27797;DHT22;15177;50.844;4.412;2023-02-01T12:38:50;10.70;99.90
27797;DHT22;15177;50.844;4.412;2023-02-01T12:44:31;11.00;99.90
27797;DHT22;15177;50.844;4.412;2023-02-01T12:47:11;11.00;99.90
27797;DHT22;15177;50.844;4.412;2023-02-01T12:52:47;11.00;99.90
27797;DHT22;15177;50.844;4.412;2023-02-01T12:57:35;11.00;99.90
27797;DHT22;15177;50.844;4.412;2023-02-01T13:03:00;11.50;99.90
27797;DHT22;15177;50.844;4.412;2023-02-01T13:05:37;11.60;99.90
27797;DHT22;15177;50.844;4.412;2023-02-01T13:08:11;11.70;99.90
27797;DHT22;15177;50.844;4.412;2023-02-01T13:10:46;11.80;99.90
27797;DHT22;15177;50.844;4.412;2023-02-01T13:13:49;11.80;99.90
27797;DHT22;15177;50.844;4.412;2023-02-01T13:16:40;11.90;99.90
27797;DHT22;15177;50.844;4.412;2023-02-01T13:19:28;11.80;99.90
27797;DHT22;15177;50.844;4.412;2023-02-01T13:22:11;11.50;99.90
27797;DHT22;15177;50.844;4.412;2023-02-01T13:24:56;11.40;99.90
27797;DHT22;15177;50.844;4.412;2023-02-01T13:27:27;11.30;99.90
27797;DHT22;15177;50.844;4.412;2023-02-01T13:30:02;11.20;99.90
27797;DHT22;15177;50.844;4.412;2023-02-01T13:41:24;11.40;99.90
27797;DHT22;15177;50.844;4.412;2023-02-01T13:43:58;11.30;99.90
27797;DHT22;15177;50.844;4.412;2023-02-01T13:46:27;11.40;99.90
27797;DHT22;15177;50.844;4.412;2023-02-01T13:49:01;11.60;99.90
27797;DHT22;15177;50.844;4.412;2023-02-01T13:51:40;11.60;99.90
27797;DHT22;15177;50.844;4.412;2023-02-01T13:54:06;11.40;99.90
27797;DHT22;15177;50.844;4.412;2023-02-01T13:56:43;11.20;99.90
27797;DHT22;15177;50.844;4.412;2023-02-01T14:03:07;11.10;99.90
27797;DHT22;15177;50.844;4.412;2023-02-01T14:23:45;11.00;99.90
27797;DHT22;15177;50.844;4.412;2023-02-01T14:26:21;11.00;99.90
27797;DHT22;15177;50.844;4.412;2023-02-01T14:28:53;10.90;99.90
27797;DHT22;15177;50.844;4.412;2023-02-01T14:37:07;11.10;99.90
27797;DHT22;15177;50.844;4.412;2023-02-01T14:42:38;11.00;99.90
27797;DHT22;15177;50.844;4.412;2023-02-01T14:47:48;10.80;99.90
27797;DHT22;15177;50.844;4.412;2023-02-01T14:50:44;10.70;99.90
27797;DHT22;15177;50.844;4.412;2023-02-01T14:53:18;10.60;99.90
27797;DHT22;15177;50.844;4.412;2023-02-01T14:56:04;10.70;99.90
27797;DHT22;15177;50.844;4.412;2023-02-01T15:08:54;10.80;99.90
27797;DHT22;15177;50.844;4.412;2023-02-01T15:11:21;10.90;99.90
27797;DHT22;15177;50.844;4.412;2023-02-01T15:13:52;10.90;99.90
27797;DHT22;15177;50.844;4.412;2023-02-01T15:16:21;10.80;99.90
27797;DHT22;15177;50.844;4.412;2023-02-01T15:18:48;10.70;99.90
27797;DHT22;15177;50.844;4.412;2023-02-01T15:21:22;10.70;99.90
27797;DHT22;15177;50.844;4.412;2023-02-01T15:23:48;10.80;99.90
27797;DHT22;15177;50.844;4.412;2023-02-01T15:26:40;10.80;99.90
27797;DHT22;15177;50.844;4.412;2023-02-01T15:29:11;10.70;99.90
27797;DHT22;15177;50.844;4.412;2023-02-01T15:31:43;10.60;99.90
27797;DHT22;15177;50.844;4.412;2023-02-01T15:34:10;10.30;99.90
27797;DHT22;15177;50.844;4.412;2023-02-01T15:36:36;10.20;99.90
27797;DHT22;15177;50.844;4.412;2023-02-01T15:39:23;10.00;99.90
27797;DHT22;15177;50.844;4.412;2023-02-01T15:41:54;10.00;99.90
27797;DHT22;15177;50.844;4.412;2023-02-01T15:44:34;10.00;99.90
27797;DHT22;15177;50.844;4.412;2023-02-01T15:47:18;10.10;99.90
27797;DHT22;15177;50.844;4.412;2023-02-01T15:49:47;10.10;99.90
27797;DHT22;15177;50.844;4.412;2023-02-01T15:54:56;10.20;99.90
27797;DHT22;15177;50.844;4.412;2023-02-01T15:57:28;10.30;99.90
27797;DHT22;15177;50.844;4.412;2023-02-01T16:00:02;10.40;99.90
27797;DHT22;15177;50.844;4.412;2023-02-01T16:02:51;10.30;99.90
27797;DHT22;15177;50.844;4.412;2023-02-01T16:10:46;10.30;99.90
27797;DHT22;15177;50.844;4.412;2023-02-01T16:13:13;10.20;99.90
27797;DHT22;15177;50.844;4.412;2023-02-01T16:15:39;10.10;99.90
27797;DHT22;15177;50.844;4.412;2023-02-01T16:18:06;10.10;99.90
27797;DHT22;15177;50.844;4.412;2023-02-01T16:20:34;10.10;99.90
27797;DHT22;15177;50.844;4.412;2023-02-01T16:23:01;10.00;99.90
27797;DHT22;15177;50.844;4.412;2023-02-01T16:25:27;10.00;99.90
27797;DHT22;15177;50.844;4.412;2023-02-01T16:27:53;10.10;99.90
27797;DHT22;15177;50.844;4.412;2023-02-01T16:30:19;10.10;99.90
27797;DHT22;15177;50.844;4.412;2023-02-01T16:33:00;10.10;99.90
27797;DHT22;15177;50.844;4.412;2023-02-01T16:35:39;10.00;99.90
27797;DHT22;15177;50.844;4.412;2023-02-01T16:38:16;10.10;99.90
27797;DHT22;15177;50.844;4.412;2023-02-01T16:40:44;10.00;99.90
27797;DHT22;15177;50.844;4.412;2023-02-01T16:43:17;9.90;99.90
27797;DHT22;15177;50.844;4.412;2023-02-01T16:45:44;9.90;99.90
27797;DHT22;15177;50.844;4.412;2023-02-01T16:48:37;10.00;99.90
27797;DHT22;15177;50.844;4.412;2023-02-01T16:51:12;10.00;99.90
27797;DHT22;15177;50.844;4.412;2023-02-01T16:53:40;9.90;99.90
27797;DHT22;15177;50.844;4.412;2023-02-01T16:56:18;9.90;99.90
27797;DHT22;15177;50.844;4.412;2023-02-01T16:58:46;9.90;99.90
27797;DHT22;15177;50.844;4.412;2023-02-01T17:01:14;9.90;99.90
27797;DHT22;15177;50.844;4.412;2023-02-01T17:03:40;9.90;99.90
27797;DHT22;15177;50.844;4.412;2023-02-01T17:06:08;9.90;99.90
27797;DHT22;15177;50.844;4.412;2023-02-01T17:08:37;10.00;99.90
27797;DHT22;15177;50.844;4.412;2023-02-01T17:11:06;10.00;99.90
27797;DHT22;15177;50.844;4.412;2023-02-01T17:13:32;10.10;99.90
27797;DHT22;15177;50.844;4.412;2023-02-01T17:16:04;10.00;99.90
27797;DHT22;15177;50.844;4.412;2023-02-01T17:18:33;10.00;99.90
27797;DHT22;15177;50.844;4.412;2023-02-01T17:21:00;10.00;99.90
27797;DHT22;15177;50.844;4.412;2023-02-01T17:23:28;10.00;99.90
27797;DHT22;15177;50.844;4.412;2023-02-01T17:25:55;9.90;99.90
27797;DHT22;15177;50.844;4.412;2023-02-01T17:28:21;9.80;99.90
27797;DHT22;15177;50.844;4.412;2023-02-01T17:30:47;9.90;99.90
27797;DHT22;15177;50.844;4.412;2023-02-01T17:33:27;10.00;99.90
27797;DHT22;15177;50.844;4.412;2023-02-01T17:35:54;10.00;99.90
27797;DHT22;15177;50.844;4.412;2023-02-01T17:38:20;10.00;99.90
27797;DHT22;15177;50.844;4.412;2023-02-01T17:40:46;10.10;99.90
27797;DHT22;15177;50.844;4.412;2023-02-01T17:43:21;10.20;99.90
27797;DHT22;15177;50.844;4.412;2023-02-01T17:46:16;10.20;99.90
27797;DHT22;15177;50.844;4.412;2023-02-01T17:48:43;10.10;99.90
27797;DHT22;15177;50.844;4.412;2023-02-01T17:51:15;10.10;99.90
27797;DHT22;15177;50.844;4.412;2023-02-01T17:53:40;10.10;99.90
27797;DHT22;15177;50.844;4.412;2023-02-01T17:56:15;10.10;99.90
27797;DHT22;15177;50.844;4.412;2023-02-01T17:58:41;10.20;99.90
27797;DHT22;15177;50.844;4.412;2023-02-01T18:01:11;10.10;99.90
27797;DHT22;15177;50.844;4.412;2023-02-01T18:03:37;10.10;99.90
27797;DHT22;15177;50.844;4.412;2023-02-01T18:06:03;10.00;99.90
27797;DHT22;15177;50.844;4.412;2023-02-01T18:08:30;10.00;99.90
27797;DHT22;15177;50.844;4.412;2023-02-01T18:11:00;10.00;99.90
27797;DHT22;15177;50.844;4.412;2023-02-01T18:13:30;10.00;99.90
27797;DHT22;15177;50.844;4.412;2023-02-01T18:15:57;10.00;99.90
27797;DHT22;15177;50.844;4.412;2023-02-01T18:18:26;10.00;99.90
27797;DHT22;15177;50.844;4.412;2023-02-01T18:20:55;10.00;99.90
27797;DHT22;15177;50.844;4.412;2023-02-01T18:23:22;10.00;99.90
27797;DHT22;15177;50.844;4.412;2023-02-01T18:25:50;10.00;99.90
27797;DHT22;15177;50.844;4.412;2023-02-01T18:28:17;10.00;99.90
27797;DHT22;15177;50.844;4.412;2023-02-01T18:30:46;10.10;99.90
27797;DHT22;15177;50.844;4.412;2023-02-01T18:33:18;10.00;99.90
27797;DHT22;15177;50.844;4.412;2023-02-01T18:35:45;10.10;99.90
27797;DHT22;15177;50.844;4.412;2023-02-01T18:38:10;10.20;99.90
27797;DHT22;15177;50.844;4.412;2023-02-01T18:40:40;10.20;99.90
27797;DHT22;15177;50.844;4.412;2023-02-01T18:43:09;10.10;99.90
27797;DHT22;15177;50.844;4.412;2023-02-01T18:45:38;10.00;99.90
27797;DHT22;15177;50.844;4.412;2023-02-01T18:48:06;10.20;99.90
27797;DHT22;15177;50.844;4.412;2023-02-01T18:50:36;10.20;99.90
27797;DHT22;15177;50.844;4.412;2023-02-01T18:53:04;10.10;99.90
27797;DHT22;15177;50.844;4.412;2023-02-01T18:55:31;10.00;99.90
27797;DHT22;15177;50.844;4.412;2023-02-01T18:58:00;10.10;99.90
27797;DHT22;15177;50.844;4.412;2023-02-01T19:00:28;10.10;99.90
27797;DHT22;15177;50.844;4.412;2023-02-01T19:02:54;10.10;99.90
27797;DHT22;15177;50.844;4.412;2023-02-01T19:05:20;10.10;99.90
27797;DHT22;15177;50.844;4.412;2023-02-01T19:07:46;10.10;99.90
27797;DHT22;15177;50.844;4.412;2023-02-01T19:10:17;9.90;99.90